Time;durP1;ratioP1;P1;durP2;ratioP2;P2;SDS_P1;SDS_P2;PMS_P1;PMS_P2;Temp;Humidity;BMP_temperature;BMP_pressure;BME280_temperature;BME280_humidity;BME280_pressure;Samples;Min_cycle;Max_cycle;Signal;HPM_P1;HPM_P2
2023/04/06 00:01:49;;;;;;;14.13;8.43;;;3.30;99.90;;;;;;5031678;28;20507;-79
2023/04/06 00:04:15;;;;;;;13.27;8.70;;;3.30;99.90;;;;;;5028020;28;20045;-79
2023/04/06 00:06:42;;;;;;;15.07;8.35;;;3.30;99.90;;;;;;5036735;28;20085;-79
2023/04/06 00:09:07;;;;;;;14.05;8.70;;;3.20;99.90;;;;;;5028041;28;20041;-79
2023/04/06 00:11:33;;;;;;;11.93;8.40;;;3.20;99.90;;;;;;5036416;28;20456;-79
2023/04/06 00:13:59;;;;;;;11.90;8.57;;;3.20;99.90;;;;;;5035150;28;20053;-79
2023/04/06 00:16:25;;;;;;;12.93;8.40;;;3.20;99.90;;;;;;5036499;28;20048;-79
2023/04/06 00:18:50;;;;;;;12.75;8.40;;;3.10;99.90;;;;;;5036409;28;20042;-79
2023/04/06 00:21:16;;;;;;;13.02;8.05;;;3.10;99.90;;;;;;5028897;28;20041;-79
2023/04/06 00:23:42;;;;;;;13.50;8.48;;;3.10;99.90;;;;;;5036241;28;20049;-79
2023/04/06 00:26:09;;;;;;;15.65;9.13;;;3.10;99.90;;;;;;5036509;28;20045;-79
2023/04/06 00:28:34;;;;;;;14.10;8.25;;;3.00;99.90;;;;;;5031322;28;20429;-79
2023/04/06 00:31:00;;;;;;;12.43;7.75;;;3.00;99.90;;;;;;5034961;28;20045;-79
2023/04/06 00:33:26;;;;;;;14.38;8.60;;;3.10;99.90;;;;;;5036053;28;20049;-79
2023/04/06 00:35:51;;;;;;;17.50;9.40;;;3.10;99.90;;;;;;5036428;28;20069;-79
2023/04/06 00:38:17;;;;;;;14.35;8.90;;;3.00;99.90;;;;;;5035956;28;20397;-79
2023/04/06 00:40:46;;;;;;;12.40;9.13;;;3.00;99.90;;;;;;5032427;28;20045;-79
2023/04/06 00:43:12;;;;;;;12.95;9.45;;;3.00;99.90;;;;;;5027837;28;20084;-79
2023/04/06 00:45:39;;;;;;;14.45;9.23;;;2.90;99.90;;;;;;5034969;28;20045;-79
2023/04/06 00:48:06;;;;;;;14.73;9.15;;;3.00;99.90;;;;;;5036023;28;20041;-79
2023/04/06 00:50:34;;;;;;;14.02;8.85;;;2.90;99.90;;;;;;5030109;28;20054;-79
2023/04/06 00:53:01;;;;;;;12.55;8.25;;;2.90;99.90;;;;;;5017996;28;20481;-79
2023/04/06 00:55:27;;;;;;;13.93;9.88;;;2.90;99.90;;;;;;5017977;28;20058;-79
2023/04/06 00:57:53;;;;;;;13.55;8.75;;;3.00;99.90;;;;;;5035700;28;20041;-79
2023/04/06 01:00:19;;;;;;;13.68;9.00;;;2.90;99.90;;;;;;5017913;28;20111;-79
2023/04/06 01:02:46;;;;;;;15.55;9.23;;;2.90;99.90;;;;;;5036115;28;20045;-79
2023/04/06 01:05:11;;;;;;;12.85;8.80;;;2.90;99.90;;;;;;5017670;28;20088;-79
2023/04/06 01:07:37;;;;;;;14.85;9.48;;;2.90;99.90;;;;;;5017996;28;20084;-79
2023/04/06 01:10:03;;;;;;;13.32;8.77;;;2.90;99.90;;;;;;5017638;28;20054;-79
2023/04/06 01:12:30;;;;;;;15.05;8.52;;;2.80;99.90;;;;;;5035374;28;20513;-79
2023/04/06 01:14:55;;;;;;;13.07;8.88;;;2.80;99.90;;;;;;5016879;28;20512;-79
2023/04/06 01:17:21;;;;;;;16.70;8.73;;;2.80;99.90;;;;;;5035342;28;20089;-79
2023/04/06 01:19:49;;;;;;;13.52;8.13;;;2.80;99.90;;;;;;5017430;28;20107;-80
2023/04/06 01:22:18;;;;;;;16.25;10.13;;;2.80;99.90;;;;;;5017440;28;20052;-79
2023/04/06 01:24:44;;;;;;;13.88;9.35;;;2.80;99.90;;;;;;5035204;28;20049;-79
2023/04/06 01:27:10;;;;;;;13.52;9.57;;;2.70;99.90;;;;;;5017667;28;20041;-79
2023/04/06 01:29:35;;;;;;;11.90;9.00;;;2.70;99.90;;;;;;5017437;28;20050;-79
2023/04/06 01:32:01;;;;;;;13.82;9.77;;;2.70;99.90;;;;;;5035391;28;20496;-79
2023/04/06 01:34:27;;;;;;;14.98;9.18;;;2.70;99.90;;;;;;5017396;28;20045;-79
2023/04/06 01:36:52;;;;;;;13.57;8.85;;;2.60;99.90;;;;;;5017178;28;20045;-79
2023/04/06 01:39:19;;;;;;;12.60;8.88;;;2.60;99.90;;;;;;5017131;28;20068;-79
2023/04/06 01:41:46;;;;;;;15.77;8.82;;;2.70;99.90;;;;;;5017337;28;20132;-79
2023/04/06 01:44:12;;;;;;;13.77;9.00;;;2.60;99.90;;;;;;5034869;28;20100;-79
2023/04/06 01:46:38;;;;;;;17.50;8.90;;;2.60;99.90;;;;;;5016847;28;20037;-79
2023/04/06 01:49:04;;;;;;;13.52;8.70;;;2.60;99.90;;;;;;5016722;28;20038;-79
2023/04/06 01:51:34;;;;;;;13.75;9.27;;;2.60;99.90;;;;;;5023596;28;20064;-79
2023/04/06 01:54:00;;;;;;;16.35;9.95;;;2.60;99.90;;;;;;5033337;28;20405;-79
2023/04/06 01:56:26;;;;;;;14.02;9.18;;;2.60;99.90;;;;;;5028767;28;20057;-79
2023/04/06 01:58:51;;;;;;;15.43;9.40;;;2.60;99.90;;;;;;5034575;28;20053;-79
2023/04/06 02:01:17;;;;;;;14.68;9.35;;;2.60;99.90;;;;;;5027106;28;20041;-79
2023/04/06 02:03:43;;;;;;;15.23;9.18;;;2.60;99.90;;;;;;5034536;28;20076;-79
2023/04/06 02:06:08;;;;;;;13.55;8.77;;;2.60;99.90;;;;;;5026093;28;20095;-79
2023/04/06 02:08:34;;;;;;;13.75;8.82;;;2.60;99.90;;;;;;5034433;28;20128;-79
2023/04/06 02:10:59;;;;;;;12.73;8.88;;;2.60;99.90;;;;;;5032545;28;20053;-79
2023/04/06 02:13:25;;;;;;;12.88;9.18;;;2.60;99.90;;;;;;5028304;28;20072;-79
2023/04/06 02:15:51;;;;;;;14.13;9.45;;;2.60;99.90;;;;;;5034525;28;20046;-79
2023/04/06 02:18:18;;;;;;;15.38;9.88;;;2.60;99.90;;;;;;5034478;28;20053;-79
2023/04/06 02:20:44;;;;;;;14.25;8.90;;;2.50;99.90;;;;;;5034105;28;20060;-79
2023/04/06 02:23:10;;;;;;;15.65;9.48;;;2.60;99.90;;;;;;5026497;28;20041;-79
2023/04/06 02:25:38;;;;;;;12.77;8.48;;;2.60;99.90;;;;;;5033903;28;20500;-79
2023/04/06 02:28:04;;;;;;;13.50;8.63;;;2.60;99.90;;;;;;5033841;28;20045;-79
2023/04/06 02:30:32;;;;;;;14.68;9.02;;;2.60;99.90;;;;;;5028236;28;20060;-79
2023/04/06 02:32:59;;;;;;;14.23;9.60;;;2.50;99.90;;;;;;5034022;28;20049;-79
2023/04/06 02:35:25;;;;;;;13.35;9.88;;;2.60;99.90;;;;;;5034000;28;20042;-79
2023/04/06 02:37:51;;;;;;;13.98;8.90;;;2.50;99.90;;;;;;5031463;28;20041;-79
2023/04/06 02:40:16;;;;;;;12.85;9.23;;;2.60;99.90;;;;;;5026633;28;20407;-79
2023/04/06 02:42:42;;;;;;;16.52;9.20;;;2.50;99.90;;;;;;5032694;28;20088;-79
2023/04/06 02:45:08;;;;;;;17.50;8.93;;;2.50;99.90;;;;;;5025510;28;20049;-79
2023/04/06 02:47:33;;;;;;;15.50;10.52;;;2.50;99.90;;;;;;5032451;28;20409;-79
2023/04/06 02:49:59;;;;;;;14.43;9.45;;;2.50;99.90;;;;;;5033753;28;20053;-79
2023/04/06 02:52:26;;;;;;;16.38;9.30;;;2.40;99.90;;;;;;5033619;28;20055;-79
2023/04/06 02:54:52;;;;;;;17.05;9.68;;;2.40;99.90;;;;;;5033648;28;20481;-79
2023/04/06 02:57:17;;;;;;;14.07;9.65;;;2.40;99.90;;;;;;5026439;28;20095;-79
2023/04/06 02:59:43;;;;;;;13.70;9.40;;;2.40;99.90;;;;;;5032534;28;20079;-79
2023/04/06 03:02:09;;;;;;;14.60;10.10;;;2.40;99.90;;;;;;5025274;28;20409;-79
2023/04/06 03:04:34;;;;;;;14.90;9.70;;;2.40;99.90;;;;;;5033463;28;20045;-79
2023/04/06 03:07:00;;;;;;;15.27;10.20;;;2.30;99.90;;;;;;5033591;28;20045;-79
2023/04/06 03:09:27;;;;;;;15.60;10.05;;;2.30;99.90;;;;;;5027277;28;20041;-79
2023/04/06 03:11:52;;;;;;;16.27;10.68;;;2.30;99.90;;;;;;5032368;28;20045;-79
2023/04/06 03:14:21;;;;;;;14.38;9.68;;;2.30;99.90;;;;;;5026203;28;20060;-79
2023/04/06 03:16:50;;;;;;;17.50;10.35;;;2.20;99.90;;;;;;5033523;28;20203;-79
2023/04/06 03:19:15;;;;;;;15.00;10.80;;;2.20;99.90;;;;;;5026197;28;20069;-79
2023/04/06 03:21:41;;;;;;;13.88;10.15;;;2.20;99.90;;;;;;5032208;28;20583;-79
2023/04/06 03:24:07;;;;;;;14.88;10.13;;;2.20;99.90;;;;;;5033318;28;20500;-79
2023/04/06 03:26:33;;;;;;;17.73;10.43;;;2.10;99.90;;;;;;5033235;28;20489;-79
2023/04/06 03:28:59;;;;;;;15.85;10.50;;;2.20;99.90;;;;;;5031527;28;20048;-79
2023/04/06 03:31:26;;;;;;;16.58;10.40;;;2.20;99.90;;;;;;5026962;28;20091;-79
2023/04/06 03:33:52;;;;;;;16.85;9.50;;;2.20;99.90;;;;;;5033260;28;20433;-79
2023/04/06 03:36:17;;;;;;;15.70;10.52;;;2.20;99.90;;;;;;5026343;28;20540;-79
2023/04/06 03:38:43;;;;;;;15.65;9.57;;;2.20;99.90;;;;;;5033555;28;20504;-79
2023/04/06 03:41:09;;;;;;;15.88;9.98;;;2.10;99.90;;;;;;5028698;28;20489;-79
2023/04/06 03:43:35;;;;;;;13.88;10.25;;;2.10;99.90;;;;;;5036974;28;20038;-79
2023/04/06 03:46:01;;;;;;;14.35;10.00;;;2.10;99.90;;;;;;5035660;28;20046;-79
2023/04/06 03:48:26;;;;;;;15.77;10.55;;;2.10;99.90;;;;;;5035762;28;20041;-79
2023/04/06 03:50:52;;;;;;;14.75;9.73;;;2.10;99.90;;;;;;5035493;28;20060;-79
2023/04/06 03:53:17;;;;;;;14.40;9.82;;;2.10;99.90;;;;;;5029888;28;20504;-79
2023/04/06 03:55:43;;;;;;;13.57;9.63;;;2.10;99.90;;;;;;5036730;28;20504;-79
2023/04/06 03:58:09;;;;;;;15.48;9.57;;;2.10;99.90;;;;;;5028428;28;20370;-79
2023/04/06 04:00:34;;;;;;;14.10;9.38;;;2.10;99.90;;;;;;5036603;28;20489;-79
2023/04/06 04:03:01;;;;;;;15.48;10.18;;;2.10;99.90;;;;;;5036714;28;20045;-79
2023/04/06 04:05:27;;;;;;;16.45;9.73;;;2.10;99.90;;;;;;5030704;28;20061;-79
2023/04/06 04:07:53;;;;;;;16.48;10.27;;;2.10;99.90;;;;;;5036630;28;20041;-79
2023/04/06 04:10:19;;;;;;;15.73;10.23;;;2.00;99.90;;;;;;5036641;28;20127;-79
2023/04/06 04:12:44;;;;;;;15.73;10.35;;;2.00;99.90;;;;;;5032820;28;20500;-79
2023/04/06 04:15:10;;;;;;;15.63;10.30;;;2.00;99.90;;;;;;5036919;28;20041;-79
2023/04/06 04:17:36;;;;;;;15.02;10.60;;;2.00;99.90;;;;;;5031920;28;20069;-79
2023/04/06 04:20:01;;;;;;;15.77;9.68;;;2.00;99.90;;;;;;5036468;28;20041;-79
2023/04/06 04:22:27;;;;;;;14.13;9.45;;;2.00;99.90;;;;;;5030662;28;20049;-79
2023/04/06 04:24:53;;;;;;;16.23;10.35;;;1.90;99.90;;;;;;5036185;28;20127;-79
2023/04/06 04:27:19;;;;;;;14.52;9.75;;;1.90;99.90;;;;;;5029292;28;20496;-79
2023/04/06 04:29:44;;;;;;;15.63;10.00;;;1.90;99.90;;;;;;5034716;28;20045;-79
2023/04/06 04:32:11;;;;;;;16.27;10.05;;;1.90;99.90;;;;;;5028287;28;20132;-79
2023/04/06 04:34:39;;;;;;;15.55;10.52;;;1.90;99.90;;;;;;5034903;28;20049;-79
2023/04/06 04:37:05;;;;;;;17.17;9.93;;;1.80;99.90;;;;;;5036119;28;20049;-80
2023/04/06 04:39:31;;;;;;;15.82;11.20;;;1.80;99.90;;;;;;5030701;28;20047;-80
2023/04/06 04:41:57;;;;;;;18.45;11.32;;;1.80;99.90;;;;;;5034679;28;20485;-80
2023/04/06 04:44:22;;;;;;;16.23;11.40;;;1.80;99.90;;;;;;5029317;28;20080;-80
2023/04/06 04:46:48;;;;;;;17.52;10.40;;;1.70;99.90;;;;;;5034982;28;20045;-80
2023/04/06 04:49:14;;;;;;;16.90;11.20;;;1.80;99.90;;;;;;5027768;28;20045;-79
2023/04/06 04:51:40;;;;;;;18.65;10.82;;;1.70;99.90;;;;;;5034575;28;20060;-79
2023/04/06 04:54:07;;;;;;;17.58;11.75;;;1.70;99.90;;;;;;5035531;28;20432;-79
2023/04/06 04:56:32;;;;;;;15.07;10.82;;;1.70;99.90;;;;;;5035490;28;20050;-79
2023/04/06 04:58:58;;;;;;;16.48;10.82;;;1.70;99.90;;;;;;5035461;28;20057;-79
2023/04/06 05:01:24;;;;;;;15.90;10.57;;;1.70;99.90;;;;;;5035483;28;20045;-79
2023/04/06 05:03:50;;;;;;;16.25;11.07;;;1.70;99.90;;;;;;5032681;28;20091;-79
2023/04/06 05:06:15;;;;;;;16.25;11.80;;;1.70;99.90;;;;;;5027686;28;20414;-79
2023/04/06 05:08:41;;;;;;;17.85;11.07;;;1.60;99.90;;;;;;5035332;28;20469;-79
2023/04/06 05:11:08;;;;;;;18.25;11.48;;;1.60;99.90;;;;;;5026520;28;20412;-80
2023/04/06 05:13:33;;;;;;;16.30;10.88;;;1.60;99.90;;;;;;5034016;28;20103;-79
2023/04/06 05:15:59;;;;;;;17.70;11.18;;;1.70;99.90;;;;;;5034046;28;20049;-79
2023/04/06 05:18:25;;;;;;;17.95;10.98;;;1.70;99.90;;;;;;5029150;28;20559;-79
2023/04/06 05:20:51;;;;;;;18.27;10.95;;;1.60;99.90;;;;;;5033757;28;20048;-79
2023/04/06 05:23:17;;;;;;;18.17;11.25;;;1.60;99.90;;;;;;5027825;28;20053;-79
2023/04/06 05:25:42;;;;;;;18.55;10.73;;;1.70;99.90;;;;;;5034992;28;20050;-79
2023/04/06 05:28:08;;;;;;;14.15;10.10;;;1.70;99.90;;;;;;5026335;28;20091;-79
2023/04/06 05:30:35;;;;;;;18.25;11.85;;;1.70;99.90;;;;;;5033677;28;20099;-79
2023/04/06 05:33:01;;;;;;;18.20;11.07;;;1.70;99.90;;;;;;5033927;28;20103;-79
2023/04/06 05:35:26;;;;;;;16.55;11.57;;;1.80;99.90;;;;;;5028865;28;20053;-79
2023/04/06 05:37:52;;;;;;;16.55;10.95;;;1.80;99.90;;;;;;5033488;28;20038;-79
2023/04/06 05:40:18;;;;;;;18.90;11.82;;;1.80;99.90;;;;;;5027436;28;20041;-80
2023/04/06 05:42:43;;;;;;;17.75;10.65;;;1.80;99.90;;;;;;5034586;28;20046;-80
2023/04/06 05:45:10;;;;;;;18.13;11.45;;;1.90;99.90;;;;;;5026446;28;20146;-79
2023/04/06 05:47:37;;;;;;;18.70;10.48;;;1.90;99.90;;;;;;5033336;28;20124;-79
2023/04/06 05:50:03;;;;;;;17.52;11.23;;;2.00;99.90;;;;;;5034304;28;20129;-79
2023/04/06 05:52:30;;;;;;;17.55;10.93;;;2.00;99.90;;;;;;5028761;28;20503;-79
2023/04/06 05:54:56;;;;;;;16.10;9.75;;;2.10;99.90;;;;;;5034334;28;20049;-79
2023/04/06 05:57:22;;;;;;;14.32;10.05;;;2.20;99.90;;;;;;5027643;28;20038;-80
2023/04/06 05:59:48;;;;;;;16.90;11.05;;;2.30;99.90;;;;;;5033346;28;20049;-80
2023/04/06 06:02:13;;;;;;;15.95;10.50;;;2.30;99.90;;;;;;5025935;28;20045;-80
2023/04/06 06:04:39;;;;;;;16.35;10.55;;;2.40;99.90;;;;;;5032903;28;20076;-80
2023/04/06 06:07:05;;;;;;;15.77;10.02;;;2.50;99.90;;;;;;5034440;28;20056;-79
2023/04/06 06:09:31;;;;;;;14.38;10.35;;;2.60;99.90;;;;;;5028863;28;20053;-80
2023/04/06 06:11:56;;;;;;;14.25;10.20;;;2.70;99.90;;;;;;5034047;28;20034;-80
2023/04/06 06:14:22;;;;;;;13.38;9.77;;;2.70;99.90;;;;;;5027748;28;20507;-80
2023/04/06 06:16:48;;;;;;;15.52;11.27;;;2.80;99.90;;;;;;5034331;28;20045;-80
2023/04/06 06:19:14;;;;;;;15.65;10.68;;;2.80;99.90;;;;;;5034099;28;20660;-80
2023/04/06 06:21:39;;;;;;;22.02;13.32;;;2.90;99.90;;;;;;5034237;28;20041;-80
2023/04/06 06:24:06;;;;;;;15.82;10.57;;;3.00;99.90;;;;;;5033919;28;20050;-80
2023/04/06 06:26:39;;;;;;;17.55;11.00;;;3.10;99.90;;;;;;5034067;28;20049;-80
2023/04/06 06:29:05;;;;;;;16.48;11.57;;;3.10;99.90;;;;;;5033836;28;20099;-80
2023/04/06 06:31:31;;;;;;;15.65;10.02;;;3.20;99.90;;;;;;5028507;28;20559;-80
2023/04/06 06:33:57;;;;;;;18.02;10.75;;;3.30;99.90;;;;;;5034045;28;20046;-81
2023/04/06 06:36:22;;;;;;;14.93;9.93;;;3.40;99.90;;;;;;5033780;28;20033;-80
2023/04/06 06:38:48;;;;;;;15.65;10.95;;;3.50;99.90;;;;;;5033921;28;20098;-80
2023/04/06 06:41:14;;;;;;;20.13;13.13;;;3.60;99.90;;;;;;5025842;28;20068;-80
2023/04/06 06:43:39;;;;;;;18.48;12.05;;;3.70;99.90;;;;;;5033694;28;20073;-81
2023/04/06 06:46:05;;;;;;;20.60;13.15;;;3.80;99.90;;;;;;5002814;28;20042;-80
2023/04/06 06:48:31;;;;;;;13.52;10.27;;;3.90;99.90;;;;;;4995048;28;20387;-80
2023/04/06 06:51:00;;;;;;;14.90;11.18;;;4.00;99.90;;;;;;4998754;28;20135;-81
2023/04/06 06:53:26;;;;;;;18.83;11.10;;;4.10;99.90;;;;;;5013783;28;20133;-82
2023/04/06 06:55:52;;;;;;;18.13;12.15;;;4.20;99.90;;;;;;5005434;28;20084;-81
2023/04/06 06:58:19;;;;;;;21.88;13.75;;;4.30;99.90;;;;;;4997142;28;20112;-81
2023/04/06 07:00:45;;;;;;;32.90;17.58;;;4.40;99.90;;;;;;5013360;28;20095;-81
2023/04/06 07:03:11;;;;;;;27.05;13.45;;;4.50;99.90;;;;;;5013739;28;20128;-83
2023/04/06 07:05:37;;;;;;;22.10;13.00;;;4.60;99.90;;;;;;4995926;28;20457;-81
2023/04/06 07:08:03;;;;;;;24.08;14.32;;;4.80;99.90;;;;;;4995882;28;20042;-82
2023/04/06 07:10:28;;;;;;;22.80;13.45;;;4.90;99.90;;;;;;4995381;28;20103;-81
2023/04/06 07:12:54;;;;;;;15.65;10.50;;;5.10;99.90;;;;;;5013842;28;20046;-80
2023/04/06 07:15:19;;;;;;;29.38;15.70;;;5.20;99.90;;;;;;5000069;28;20089;-81
2023/04/06 07:17:45;;;;;;;15.18;9.90;;;5.30;99.90;;;;;;4999608;28;20128;-82
2023/04/06 07:20:11;;;;;;;26.80;15.13;;;5.50;99.90;;;;;;5000067;28;20045;-81
2023/04/06 07:22:38;;;;;;;19.63;12.15;;;5.50;99.90;;;;;;4999960;28;20076;-81
2023/04/06 07:25:04;;;;;;;15.57;10.82;;;5.70;99.90;;;;;;4999660;28;20096;-84
2023/04/06 07:27:30;;;;;;;14.57;10.00;;;5.90;99.90;;;;;;5017446;28;20077;-83
2023/04/06 07:29:56;;;;;;;18.85;12.57;;;5.90;99.90;;;;;;4982953;28;20081;-85
2023/04/06 07:32:21;;;;;;;18.92;11.85;;;6.00;99.90;;;;;;4999787;28;20482;-86
2023/04/06 07:34:47;;;;;;;15.10;10.57;;;6.20;99.90;;;;;;4999586;28;20049;-85
2023/04/06 07:37:13;;;;;;;18.48;11.60;;;6.20;99.90;;;;;;4999846;28;20061;-84
2023/04/06 07:39:38;;;;;;;19.83;12.32;;;6.30;99.90;;;;;;4999756;28;20042;-84
2023/04/06 07:42:04;;;;;;;15.50;10.52;;;6.50;99.90;;;;;;5016969;28;20044;-85
2023/04/06 07:44:30;;;;;;;15.90;10.68;;;6.50;99.90;;;;;;4999057;28;20050;-80
2023/04/06 07:46:56;;;;;;;16.58;11.20;;;6.70;99.90;;;;;;4999340;28;20088;-82
2023/04/06 07:49:22;;;;;;;15.70;11.13;;;6.80;99.90;;;;;;5017163;28;20041;-81
2023/04/06 07:51:48;;;;;;;16.85;11.45;;;7.00;99.90;;;;;;4999100;28;20061;-83
2023/04/06 07:54:14;;;;;;;14.98;10.82;;;7.10;99.90;;;;;;4999035;28;20129;-83
2023/04/06 07:56:39;;;;;;;17.77;9.98;;;7.20;99.90;;;;;;4999204;28;20045;-83
2023/04/06 07:59:08;;;;;;;14.77;9.77;;;7.30;99.90;;;;;;4999325;28;20045;-83
2023/04/06 08:01:33;;;;;;;14.32;9.70;;;7.40;99.90;;;;;;4999282;28;20053;-83
2023/04/06 08:04:02;;;;;;;13.63;9.57;;;7.60;99.90;;;;;;4998972;28;20042;-85
2023/04/06 08:06:28;;;;;;;15.73;10.07;;;7.70;99.90;;;;;;4998919;28;20077;-83
2023/04/06 08:08:54;;;;;;;13.70;10.48;;;7.90;99.90;;;;;;4999189;28;20077;-84
2023/04/06 08:11:20;;;;;;;15.05;9.45;;;8.00;99.90;;;;;;5016452;28;20100;-83
2023/04/06 08:13:45;;;;;;;14.23;8.75;;;8.10;99.90;;;;;;5016244;28;20501;-82
2023/04/06 08:16:11;;;;;;;15.85;10.23;;;8.30;99.90;;;;;;4999057;28;20046;-80
2023/04/06 08:18:36;;;;;;;16.02;10.48;;;8.40;99.90;;;;;;5010810;28;20041;-81
2023/04/06 08:21:02;;;;;;;17.27;10.85;;;8.50;99.90;;;;;;5055953;28;20041;-81
2023/04/06 08:23:28;;;;;;;14.63;9.82;;;8.60;99.90;;;;;;5037734;28;20099;-80
2023/04/06 08:25:54;;;;;;;13.52;9.15;;;8.80;99.90;;;;;;5037853;28;20080;-80
2023/04/06 08:28:21;;;;;;;14.18;9.30;;;8.90;99.90;;;;;;5038137;28;20110;-80
2023/04/06 08:30:46;;;;;;;13.90;9.50;;;9.10;99.90;;;;;;5037713;28;20064;-81
2023/04/06 08:33:12;;;;;;;16.55;9.65;;;9.20;99.90;;;;;;5037802;28;20573;-81
2023/04/06 08:35:37;;;;;;;15.15;9.20;;;9.40;99.90;;;;;;5055744;28;20092;-81
2023/04/06 08:38:03;;;;;;;14.60;10.38;;;9.40;99.90;;;;;;5037873;28;20131;-81
2023/04/06 08:40:29;;;;;;;16.20;9.75;;;9.50;99.90;;;;;;5055359;28;20087;-81
2023/04/06 08:42:56;;;;;;;13.82;8.73;;;9.50;99.90;;;;;;5055556;28;20037;-80
2023/04/06 08:45:22;;;;;;;13.35;9.35;;;9.60;99.90;;;;;;5055481;28;20114;-82
2023/04/06 08:47:50;;;;;;;14.88;9.32;;;9.70;99.90;;;;;;5055442;28;20127;-81
2023/04/06 08:50:17;;;;;;;14.10;9.43;;;9.80;99.90;;;;;;5037488;28;20053;-81
2023/04/06 08:52:46;;;;;;;15.70;8.70;;;9.80;99.90;;;;;;5055152;28;20057;-83
2023/04/06 08:55:12;;;;;;;12.63;8.52;;;9.90;99.90;;;;;;5055515;28;20094;-82
2023/04/06 08:57:38;;;;;;;14.43;9.35;;;9.80;99.90;;;;;;5037633;28;20089;-81
2023/04/06 09:00:05;;;;;;;15.77;10.23;;;9.80;99.90;;;;;;5037441;28;20069;-82
2023/04/06 09:02:32;;;;;;;14.57;9.90;;;9.80;99.90;;;;;;5055111;28;20079;-82
2023/04/06 09:04:58;;;;;;;15.05;9.68;;;9.80;99.90;;;;;;5037261;28;20137;-81
2023/04/06 09:07:24;;;;;;;16.85;8.98;;;9.80;99.90;;;;;;5055007;28;20049;-82
2023/04/06 09:09:51;;;;;;;16.23;9.75;;;9.80;99.90;;;;;;5037077;28;20124;-83
2023/04/06 09:12:28;;;;;;;15.70;10.10;;;9.80;99.90;;;;;;5055248;28;20056;-83
2023/04/06 09:14:55;;;;;;;13.85;9.98;;;9.70;99.90;;;;;;5055095;28;20040;-83
2023/04/06 09:17:32;;;;;;;17.45;10.15;;;9.60;99.90;;;;;;5054905;28;20048;-83
2023/04/06 09:19:59;;;;;;;16.73;10.23;;;9.60;99.90;;;;;;5036837;28;20056;-82
2023/04/06 09:22:26;;;;;;;15.25;10.48;;;9.60;99.90;;;;;;5054870;28;20044;-82
2023/04/06 09:24:53;;;;;;;15.75;10.52;;;9.60;99.90;;;;;;5054946;28;20075;-83
2023/04/06 09:27:36;;;;;;;15.20;10.43;;;9.60;99.90;;;;;;5036789;28;20084;-83
2023/04/06 09:30:13;;;;;;;16.23;11.23;;;9.70;99.90;;;;;;5054636;28;20048;-84
2023/04/06 09:32:49;;;;;;;17.40;11.52;;;9.80;99.90;;;;;;5036698;28;20087;-83
2023/04/06 09:35:15;;;;;;;17.50;11.05;;;9.80;99.90;;;;;;5054126;28;20500;-83
2023/04/06 09:37:42;;;;;;;16.50;10.85;;;9.90;99.90;;;;;;5036759;28;20041;-82
2023/04/06 09:40:08;;;;;;;15.40;10.23;;;9.90;99.90;;;;;;5036631;28;20052;-82
2023/04/06 09:42:35;;;;;;;16.60;10.45;;;10.10;99.90;;;;;;5036692;28;20389;-82
2023/04/06 09:45:04;;;;;;;16.40;10.50;;;10.10;99.90;;;;;;5036602;28;20128;-82
2023/04/06 09:47:35;;;;;;;15.85;11.77;;;10.30;99.90;;;;;;5036201;28;20511;-82
2023/04/06 09:50:02;;;;;;;19.52;11.38;;;10.40;99.90;;;;;;5054169;28;20541;-83
2023/04/06 09:52:33;;;;;;;15.60;10.85;;;10.50;99.90;;;;;;5036245;28;20064;-83
2023/04/06 09:55:04;;;;;;;17.02;11.50;;;10.50;99.90;;;;;;5036152;28;20053;-82
2023/04/06 09:57:47;;;;;;;16.25;10.60;;;10.50;99.90;;;;;;5036598;28;20049;-81
2023/04/06 10:00:17;;;;;;;16.33;11.07;;;10.70;99.90;;;;;;5054170;28;20041;-87
2023/04/06 10:02:56;;;;;;;17.95;11.13;;;10.60;99.90;;;;;;5031156;28;20102;-87
2023/04/06 10:05:39;;;;;;;16.83;10.82;;;10.50;99.90;;;;;;5028513;28;20048;-88
2023/04/06 10:08:13;;;;;;;17.33;11.57;;;10.70;99.90;;;;;;5030038;28;20542;-86
2023/04/06 10:10:39;;;;;;;20.10;11.77;;;11.00;99.90;;;;;;5035881;28;20049;-90
2023/04/06 10:13:05;;;;;;;18.45;11.82;;;11.20;99.90;;;;;;5035585;28;20033;-91
2023/04/06 10:15:33;;;;;;;17.83;12.45;;;11.10;99.90;;;;;;5029890;28;20048;-86
2023/04/06 10:17:59;;;;;;;18.10;11.85;;;11.30;99.90;;;;;;5026852;28;20054;-87
2023/04/06 10:20:48;;;;;;;26.20;13.13;;;11.40;99.90;;;;;;5045879;28;20052;-89
2023/04/06 10:23:20;;;;;;;18.13;13.30;;;11.40;99.90;;;;;;5054237;28;20045;-90
2023/04/06 10:25:57;;;;;;;24.15;12.63;;;11.40;99.90;;;;;;5036495;28;20095;-91
2023/04/06 10:28:23;;;;;;;18.92;12.60;;;11.50;99.90;;;;;;5053519;28;20075;-85
2023/04/06 10:30:48;;;;;;;19.10;13.55;;;11.70;99.90;;;;;;5053444;28;20404;-86
2023/04/06 10:33:19;;;;;;;22.13;13.32;;;11.80;99.90;;;;;;5052241;28;20044;-85
2023/04/06 10:35:46;;;;;;;19.80;12.45;;;11.90;99.90;;;;;;5035429;28;20060;-84
2023/04/06 10:38:13;;;;;;;19.30;12.95;;;12.10;99.90;;;;;;5053408;28;20460;-86
2023/04/06 10:40:42;;;;;;;20.40;13.55;;;12.10;99.90;;;;;;5036899;28;20496;-88
2023/04/06 10:43:11;;;;;;;19.42;12.65;;;12.10;99.90;;;;;;5033442;28;20405;-80
2023/04/06 10:45:37;;;;;;;23.65;13.73;;;11.90;99.40;;;;;;5033418;28;20417;-81
2023/04/06 10:48:17;;;;;;;20.10;13.40;;;12.00;99.80;;;;;;5015596;28;20396;-81
2023/04/06 10:50:48;;;;;;;21.38;13.18;;;12.00;99.90;;;;;;5015183;28;20057;-82
2023/04/06 10:53:27;;;;;;;24.80;13.45;;;12.10;99.50;;;;;;5033659;28;20041;-82
2023/04/06 10:55:55;;;;;;;20.10;13.27;;;12.10;99.90;;;;;;5033505;28;20049;-80
2023/04/06 10:58:25;;;;;;;21.13;14.23;;;12.30;99.90;;;;;;5015808;28;20550;-90
2023/04/06 11:00:51;;;;;;;24.33;15.32;;;12.30;99.60;;;;;;5016070;28;20049;-86
2023/04/06 11:03:17;;;;;;;24.08;14.95;;;12.10;99.30;;;;;;5033314;28;20045;-88
2023/04/06 11:05:51;;;;;;;27.55;16.25;;;12.30;99.30;;;;;;5015284;28;20049;-86
2023/04/06 11:08:26;;;;;;;27.65;18.80;;;12.20;97.70;;;;;;5015435;28;20041;-85
2023/04/06 11:11:03;;;;;;;26.73;17.48;;;12.40;98.60;;;;;;5032961;28;20548;-87
2023/04/06 11:14:01;;;;;;;27.77;16.27;;;12.50;98.80;;;;;;5015506;28;20501;-86
2023/04/06 11:16:29;;;;;;;30.40;17.52;;;12.60;99.10;;;;;;4970441;28;20053;-91
2023/04/06 11:19:02;;;;;;;30.77;20.02;;;12.50;98.20;;;;;;5015545;28;20058;-86
2023/04/06 11:21:41;;;;;;;;;;;12.50;98.70;;;;;;5016008;28;20067;-85
2023/04/06 11:24:22;;;;;;;30.88;19.10;;;12.60;99.40;;;;;;5008009;28;19932;-81
2023/04/06 11:26:54;;;;;;;31.02;21.20;;;12.70;99.20;;;;;;5032737;28;20037;-80
2023/04/06 11:29:22;;;;;;;30.87;18.97;;;12.60;97.50;;;;;;5015259;28;20048;-81
2023/04/06 11:31:57;;;;;;;34.13;23.08;;;12.70;97.60;;;;;;5015005;28;20382;-81
2023/04/06 11:34:25;;;;;;;33.33;21.92;;;12.70;97.00;;;;;;5015484;28;20057;-82
2023/04/06 11:36:59;;;;;;;30.98;20.77;;;12.60;96.90;;;;;;5032730;28;20045;-81
2023/04/06 11:39:26;;;;;;;31.85;20.90;;;12.70;97.50;;;;;;5032966;28;20037;-81
2023/04/06 11:41:58;;;;;;;35.75;20.38;;;12.60;97.10;;;;;;5032975;28;20116;-82
2023/04/06 11:44:36;;;;;;;31.95;19.65;;;12.50;96.80;;;;;;5015285;28;20124;-83
2023/04/06 11:47:03;;;;;;;34.97;21.60;;;12.60;97.90;;;;;;5015080;28;20050;-83
2023/04/06 11:49:29;;;;;;;32.78;22.65;;;12.50;97.10;;;;;;5015339;28;20049;-81
2023/04/06 11:51:56;;;;;;;32.03;21.38;;;12.40;97.60;;;;;;5015141;28;20104;-80
2023/04/06 11:54:37;;;;;;;31.17;20.05;;;12.40;98.00;;;;;;5032777;28;20540;-80
2023/04/06 11:57:06;;;;;;;35.33;21.13;;;12.40;98.00;;;;;;5015024;28;20095;-80
2023/04/06 11:59:32;;;;;;;38.10;22.65;;;12.30;98.10;;;;;;5016331;28;20405;-80
2023/04/06 12:01:58;;;;;;;33.92;22.83;;;12.30;98.50;;;;;;5018646;28;20045;-80
2023/04/06 12:04:24;;;;;;;31.85;20.98;;;12.30;98.00;;;;;;5018685;28;20048;-84
2023/04/06 12:06:49;;;;;;;32.28;21.23;;;12.30;97.40;;;;;;5018336;28;20504;-79
2023/04/06 12:09:17;;;;;;;31.02;20.05;;;12.20;98.00;;;;;;5018296;28;20080;-79
2023/04/06 12:11:43;;;;;;;30.10;20.08;;;12.30;97.80;;;;;;5036454;28;20037;-80
2023/04/06 12:14:08;;;;;;;32.67;21.02;;;12.40;98.40;;;;;;5036523;28;20497;-79
2023/04/06 12:16:35;;;;;;;31.10;20.67;;;12.30;97.80;;;;;;5018323;28;20048;-79
2023/04/06 12:19:01;;;;;;;29.23;17.55;;;12.30;98.00;;;;;;5018155;28;20045;-79
2023/04/06 12:21:30;;;;;;;31.33;21.13;;;12.30;98.80;;;;;;5035992;28;20053;-79
2023/04/06 12:23:57;;;;;;;32.63;19.45;;;12.30;97.80;;;;;;5018395;28;20045;-80
2023/04/06 12:26:22;;;;;;;32.38;20.77;;;12.30;97.80;;;;;;5018453;28;20099;-80
2023/04/06 12:28:48;;;;;;;34.00;20.02;;;12.30;98.80;;;;;;5036260;28;20556;-80
2023/04/06 12:31:18;;;;;;;29.75;19.70;;;12.20;97.90;;;;;;5035814;28;20049;-79
2023/04/06 12:33:48;;;;;;;30.15;19.38;;;12.10;97.90;;;;;;5035942;28;20523;-79
2023/04/06 12:36:19;;;;;;;32.42;18.55;;;12.00;97.70;;;;;;5017914;28;20056;-82
2023/04/06 12:38:47;;;;;;;30.45;19.88;;;12.10;99.00;;;;;;5017952;28;20408;-81